Billings, MT (59101)

2:51 AM MDT on August 28, 2014 (GMT -0600)
Lockwood | Change Station
CLOSE
Current Station
Personal Weather Station
Location: Billings, MT
Elevation: 3130 ft
Nearby Weather Stations

Elev 3130 ft 45.81 °N, 108.41 °W | Updated 8 seconds ago

Clear
Clear
62.3 °F
Feels Like 62.3 °F
N
0.2
Wind Variable Wind from SW
Gusts 1.6 mph

Today
High -- | Low -- °F
--% Chance of Precip.
Yesterday
High -- | Low -- °F
Precip. -- in
6:30 AM 7:59 PM
Waxing Crescent, 7% visible
Pressure 29.93 in
Visibility 10.0 miles
Clouds Clear
Dew Point 50 °F
Humidity 65%
Rainfall 0.00 in
Snow Depth Not available.
UV 0 out of 12
Pollen 8.50 out of 12
Air Quality Not available.
Flu Activity Not available.
METAR KBIL 280753Z 25010KT 10SM CLR 18/09 A3003 RMK AO2 SLP134 T01830089 $

More Conditions Fewer Conditions

Pressure 29.93 in
Visibility 10.0 miles
Clouds Clear
Dew Point 50 °F
Humidity 65%
Rainfall 0.00 in
Snow Depth Not available.
UV 0 out of 12
Pollen 8.50 out of 12
Air Quality Not available.
Flu Activity Not available.
METAR KBIL 280753Z 25010KT 10SM CLR 18/09 A3003 RMK AO2 SLP134 T01830089 $

More Conditions Fewer Conditions

10-Day Weather Forecast

Almanac

Astronomy

Aug. 28, 2014 Rise Set
Actual Time 6:30 AM MDT 7:59 PM MDT
Civil Twilight 5:58 AM MDT 8:30 PM MDT
Nautical Twilight 5:21 AM MDT 9:07 PM MDT
Astronomical Twilight 4:40 AM MDT 9:48 PM MDT
Moon 9:36 AM MDT 9:12 PM MDT
Length of Visible Light 14h 31m
Length of Day
13h 29m
Tomorrow will be 3m 4s shorter.
Waxing Crescent, 7% of the Moon is Illuminated
Today
Waxing Crescent
Sep 2
First Quarter
Sep 8
Full
Sep 15
Last Quarter
Sep 24
New

Today's Extremes

State Highs State Lows

Community

WunderPhotos

Upload Photos

1,747,918 photos uploaded!

Nearby

Snow Depth

Station Depth Elevation
Cole Creek 1 in 7850 ft
Placer Basin 0 in 8830 ft
Crystal Lake 0 in 6050 ft
White Mill 1 in 8700 ft
Fisher Creek 0 in 9100 ft

Earthquake Activity

City Distance Mag. Time & Date
No recent earthquake activity has been reported nearby.
Minimum magnitude displayed is 2.5.

Coastal Water Temperatures

Place Temperature
No Stations Reporting

Nearby Weather Stations